sensor_id;sensor_type;location;lat;lon;timestamp;P1;durP1;ratioP1;P2;durP2;ratioP2
47483;SDS011;54076;50.322;18.650;2022-07-06T00:04:25;11.20;;;7.10;;
47483;SDS011;54076;50.322;18.650;2022-07-06T00:09:26;10.00;;;6.50;;
47483;SDS011;54076;50.322;18.650;2022-07-06T00:14:27;17.90;;;7.40;;
47483;SDS011;54076;50.322;18.650;2022-07-06T00:19:28;13.00;;;7.60;;
47483;SDS011;54076;50.322;18.650;2022-07-06T00:24:29;13.00;;;7.40;;
47483;SDS011;54076;50.322;18.650;2022-07-06T00:29:30;12.10;;;7.00;;
47483;SDS011;54076;50.322;18.650;2022-07-06T00:34:31;14.70;;;7.10;;
47483;SDS011;54076;50.322;18.650;2022-07-06T00:39:32;10.90;;;6.70;;
47483;SDS011;54076;50.322;18.650;2022-07-06T00:44:34;10.50;;;7.30;;
47483;SDS011;54076;50.322;18.650;2022-07-06T00:49:35;10.60;;;6.80;;
47483;SDS011;54076;50.322;18.650;2022-07-06T00:54:54;12.70;;;7.20;;
47483;SDS011;54076;50.322;18.650;2022-07-06T00:59:56;15.00;;;7.70;;
47483;SDS011;54076;50.322;18.650;2022-07-06T01:04:57;15.30;;;8.00;;
47483;SDS011;54076;50.322;18.650;2022-07-06T01:09:58;14.10;;;7.60;;
47483;SDS011;54076;50.322;18.650;2022-07-06T01:15:03;13.40;;;8.20;;
47483;SDS011;54076;50.322;18.650;2022-07-06T01:20:16;14.50;;;7.90;;
47483;SDS011;54076;50.322;18.650;2022-07-06T01:25:24;14.40;;;8.00;;
47483;SDS011;54076;50.322;18.650;2022-07-06T01:30:24;16.90;;;8.40;;
47483;SDS011;54076;50.322;18.650;2022-07-06T01:35:26;15.70;;;8.20;;
47483;SDS011;54076;50.322;18.650;2022-07-06T01:40:32;13.00;;;7.80;;
47483;SDS011;54076;50.322;18.650;2022-07-06T01:45:33;14.60;;;8.50;;
47483;SDS011;54076;50.322;18.650;2022-07-06T01:50:34;16.20;;;8.70;;
47483;SDS011;54076;50.322;18.650;2022-07-06T01:55:35;12.60;;;8.30;;
47483;SDS011;54076;50.322;18.650;2022-07-06T02:00:36;14.40;;;8.70;;
47483;SDS011;54076;50.322;18.650;2022-07-06T02:05:37;18.60;;;8.60;;
47483;SDS011;54076;50.322;18.650;2022-07-06T02:10:38;16.10;;;8.00;;
47483;SDS011;54076;50.322;18.650;2022-07-06T02:15:39;13.40;;;8.10;;
47483;SDS011;54076;50.322;18.650;2022-07-06T02:20:40;14.60;;;7.90;;
47483;SDS011;54076;50.322;18.650;2022-07-06T02:25:41;14.80;;;8.20;;
47483;SDS011;54076;50.322;18.650;2022-07-06T02:30:42;16.30;;;8.40;;
47483;SDS011;54076;50.322;18.650;2022-07-06T02:35:43;15.50;;;8.60;;
47483;SDS011;54076;50.322;18.650;2022-07-06T02:40:44;16.50;;;8.10;;
47483;SDS011;54076;50.322;18.650;2022-07-06T02:45:45;15.20;;;7.60;;
47483;SDS011;54076;50.322;18.650;2022-07-06T02:50:46;15.30;;;8.10;;
47483;SDS011;54076;50.322;18.650;2022-07-06T02:55:48;13.60;;;7.60;;
47483;SDS011;54076;50.322;18.650;2022-07-06T03:00:48;15.40;;;8.10;;
47483;SDS011;54076;50.322;18.650;2022-07-06T03:11:12;18.30;;;9.20;;
47483;SDS011;54076;50.322;18.650;2022-07-06T03:16:13;17.10;;;9.50;;
47483;SDS011;54076;50.322;18.650;2022-07-06T03:21:14;22.00;;;9.70;;
47483;SDS011;54076;50.322;18.650;2022-07-06T03:26:15;18.70;;;9.20;;
47483;SDS011;54076;50.322;18.650;2022-07-06T03:31:16;16.20;;;9.00;;
47483;SDS011;54076;50.322;18.650;2022-07-06T03:36:17;17.20;;;10.40;;
47483;SDS011;54076;50.322;18.650;2022-07-06T03:41:18;16.30;;;9.70;;
47483;SDS011;54076;50.322;18.650;2022-07-06T03:46:19;16.60;;;9.50;;
47483;SDS011;54076;50.322;18.650;2022-07-06T03:51:20;17.90;;;9.20;;
47483;SDS011;54076;50.322;18.650;2022-07-06T03:56:21;20.10;;;9.30;;
47483;SDS011;54076;50.322;18.650;2022-07-06T04:01:28;17.00;;;9.50;;
47483;SDS011;54076;50.322;18.650;2022-07-06T04:06:30;14.40;;;9.10;;
47483;SDS011;54076;50.322;18.650;2022-07-06T04:11:31;16.50;;;9.10;;
47483;SDS011;54076;50.322;18.650;2022-07-06T04:16:32;17.80;;;9.70;;
47483;SDS011;54076;50.322;18.650;2022-07-06T04:21:33;15.40;;;9.20;;
47483;SDS011;54076;50.322;18.650;2022-07-06T04:26:34;16.90;;;8.60;;
47483;SDS011;54076;50.322;18.650;2022-07-06T04:31:35;13.50;;;8.80;;
47483;SDS011;54076;50.322;18.650;2022-07-06T04:36:36;15.30;;;9.30;;
47483;SDS011;54076;50.322;18.650;2022-07-06T04:41:37;16.60;;;9.90;;
47483;SDS011;54076;50.322;18.650;2022-07-06T04:46:38;15.40;;;9.10;;
47483;SDS011;54076;50.322;18.650;2022-07-06T04:51:39;16.50;;;9.30;;
47483;SDS011;54076;50.322;18.650;2022-07-06T04:56:40;16.00;;;9.90;;
47483;SDS011;54076;50.322;18.650;2022-07-06T05:01:41;18.10;;;10.90;;
47483;SDS011;54076;50.322;18.650;2022-07-06T05:06:42;16.10;;;9.90;;
47483;SDS011;54076;50.322;18.650;2022-07-06T05:11:43;17.30;;;10.00;;
47483;SDS011;54076;50.322;18.650;2022-07-06T05:16:45;16.90;;;10.40;;
47483;SDS011;54076;50.322;18.650;2022-07-06T05:21:46;14.20;;;9.60;;
47483;SDS011;54076;50.322;18.650;2022-07-06T05:26:47;16.50;;;9.20;;
47483;SDS011;54076;50.322;18.650;2022-07-06T05:31:48;15.80;;;10.80;;
47483;SDS011;54076;50.322;18.650;2022-07-06T05:36:49;17.70;;;10.90;;
47483;SDS011;54076;50.322;18.650;2022-07-06T05:41:50;14.90;;;9.90;;
47483;SDS011;54076;50.322;18.650;2022-07-06T05:46:51;17.60;;;11.10;;
47483;SDS011;54076;50.322;18.650;2022-07-06T05:51:52;16.90;;;10.50;;
47483;SDS011;54076;50.322;18.650;2022-07-06T05:56:53;16.00;;;9.30;;
47483;SDS011;54076;50.322;18.650;2022-07-06T06:01:54;17.30;;;10.10;;
47483;SDS011;54076;50.322;18.650;2022-07-06T06:06:55;15.70;;;9.60;;
47483;SDS011;54076;50.322;18.650;2022-07-06T06:11:55;14.30;;;8.70;;
47483;SDS011;54076;50.322;18.650;2022-07-06T06:16:57;13.60;;;7.50;;
47483;SDS011;54076;50.322;18.650;2022-07-06T06:21:59;14.70;;;8.10;;
47483;SDS011;54076;50.322;18.650;2022-07-06T06:27:00;18.00;;;9.80;;
47483;SDS011;54076;50.322;18.650;2022-07-06T06:32:01;15.40;;;8.70;;
47483;SDS011;54076;50.322;18.650;2022-07-06T06:37:02;15.80;;;9.00;;
47483;SDS011;54076;50.322;18.650;2022-07-06T06:42:03;13.90;;;8.20;;
47483;SDS011;54076;50.322;18.650;2022-07-06T06:47:05;10.30;;;6.70;;
47483;SDS011;54076;50.322;18.650;2022-07-06T06:52:06;13.10;;;6.70;;
47483;SDS011;54076;50.322;18.650;2022-07-06T06:57:06;11.90;;;6.20;;
47483;SDS011;54076;50.322;18.650;2022-07-06T07:02:07;11.20;;;5.90;;
47483;SDS011;54076;50.322;18.650;2022-07-06T07:07:08;13.00;;;5.20;;
47483;SDS011;54076;50.322;18.650;2022-07-06T07:12:09;10.10;;;4.80;;
47483;SDS011;54076;50.322;18.650;2022-07-06T07:17:12;8.30;;;4.20;;
47483;SDS011;54076;50.322;18.650;2022-07-06T07:22:14;10.10;;;4.60;;
47483;SDS011;54076;50.322;18.650;2022-07-06T07:27:18;6.40;;;3.70;;
47483;SDS011;54076;50.322;18.650;2022-07-06T07:32:19;7.80;;;3.70;;
47483;SDS011;54076;50.322;18.650;2022-07-06T07:37:20;8.50;;;3.60;;
47483;SDS011;54076;50.322;18.650;2022-07-06T07:42:21;7.30;;;3.70;;
47483;SDS011;54076;50.322;18.650;2022-07-06T07:47:22;7.70;;;3.70;;
47483;SDS011;54076;50.322;18.650;2022-07-06T07:52:23;8.10;;;3.40;;
47483;SDS011;54076;50.322;18.650;2022-07-06T07:57:24;5.40;;;3.50;;
47483;SDS011;54076;50.322;18.650;2022-07-06T08:02:25;5.10;;;3.20;;
47483;SDS011;54076;50.322;18.650;2022-07-06T08:07:26;6.50;;;3.30;;
47483;SDS011;54076;50.322;18.650;2022-07-06T08:12:27;6.10;;;3.60;;
47483;SDS011;54076;50.322;18.650;2022-07-06T08:17:28;7.20;;;3.10;;
47483;SDS011;54076;50.322;18.650;2022-07-06T08:22:30;5.60;;;3.20;;
47483;SDS011;54076;50.322;18.650;2022-07-06T08:27:31;22.20;;;11.80;;
47483;SDS011;54076;50.322;18.650;2022-07-06T08:32:32;4.60;;;2.70;;
47483;SDS011;54076;50.322;18.650;2022-07-06T08:37:33;5.30;;;2.40;;
47483;SDS011;54076;50.322;18.650;2022-07-06T08:42:35;4.10;;;2.20;;
47483;SDS011;54076;50.322;18.650;2022-07-06T08:47:36;7.10;;;2.60;;
47483;SDS011;54076;50.322;18.650;2022-07-06T08:52:38;4.60;;;2.40;;
47483;SDS011;54076;50.322;18.650;2022-07-06T08:57:39;4.20;;;2.50;;
47483;SDS011;54076;50.322;18.650;2022-07-06T09:02:41;4.00;;;2.20;;
47483;SDS011;54076;50.322;18.650;2022-07-06T09:07:45;4.90;;;2.10;;
47483;SDS011;54076;50.322;18.650;2022-07-06T09:12:50;4.70;;;2.20;;
47483;SDS011;54076;50.322;18.650;2022-07-06T09:17:52;5.30;;;2.80;;
47483;SDS011;54076;50.322;18.650;2022-07-06T09:22:58;4.00;;;2.00;;
47483;SDS011;54076;50.322;18.650;2022-07-06T09:28:01;4.00;;;1.90;;
47483;SDS011;54076;50.322;18.650;2022-07-06T09:33:03;5.10;;;2.10;;
47483;SDS011;54076;50.322;18.650;2022-07-06T09:38:14;8.20;;;2.40;;
47483;SDS011;54076;50.322;18.650;2022-07-06T09:48:26;4.60;;;1.90;;
47483;SDS011;54076;50.322;18.650;2022-07-06T09:53:29;5.00;;;2.40;;
47483;SDS011;54076;50.322;18.650;2022-07-06T09:58:30;4.00;;;2.00;;
47483;SDS011;54076;50.322;18.650;2022-07-06T10:03:31;4.10;;;2.00;;
47483;SDS011;54076;50.322;18.650;2022-07-06T10:08:32;5.10;;;2.10;;
47483;SDS011;54076;50.322;18.650;2022-07-06T10:13:35;4.90;;;2.50;;
47483;SDS011;54076;50.322;18.650;2022-07-06T10:18:38;7.70;;;2.70;;
47483;SDS011;54076;50.322;18.650;2022-07-06T10:23:41;4.00;;;2.30;;
47483;SDS011;54076;50.322;18.650;2022-07-06T10:28:43;7.00;;;4.40;;
47483;SDS011;54076;50.322;18.650;2022-07-06T10:33:45;4.20;;;2.50;;
47483;SDS011;54076;50.322;18.650;2022-07-06T10:38:50;4.80;;;2.50;;
47483;SDS011;54076;50.322;18.650;2022-07-06T10:43:52;4.70;;;2.40;;
47483;SDS011;54076;50.322;18.650;2022-07-06T10:48:57;4.80;;;2.20;;
47483;SDS011;54076;50.322;18.650;2022-07-06T10:54:04;4.80;;;2.40;;
47483;SDS011;54076;50.322;18.650;2022-07-06T11:04:15;3.80;;;2.10;;
47483;SDS011;54076;50.322;18.650;2022-07-06T11:09:16;5.50;;;2.40;;
47483;SDS011;54076;50.322;18.650;2022-07-06T11:14:18;5.20;;;2.60;;
47483;SDS011;54076;50.322;18.650;2022-07-06T11:19:23;5.40;;;2.60;;
47483;SDS011;54076;50.322;18.650;2022-07-06T11:24:29;8.50;;;3.30;;
47483;SDS011;54076;50.322;18.650;2022-07-06T11:29:31;5.90;;;2.70;;
47483;SDS011;54076;50.322;18.650;2022-07-06T11:34:34;7.30;;;3.60;;
47483;SDS011;54076;50.322;18.650;2022-07-06T11:39:42;3.80;;;2.30;;
47483;SDS011;54076;50.322;18.650;2022-07-06T11:44:44;5.10;;;2.20;;
47483;SDS011;54076;50.322;18.650;2022-07-06T11:49:49;4.00;;;2.10;;
47483;SDS011;54076;50.322;18.650;2022-07-06T11:54:57;5.00;;;2.30;;
47483;SDS011;54076;50.322;18.650;2022-07-06T11:59:59;6.30;;;2.20;;
47483;SDS011;54076;50.322;18.650;2022-07-06T12:05:00;4.30;;;1.90;;
47483;SDS011;54076;50.322;18.650;2022-07-06T12:10:02;4.10;;;1.90;;
47483;SDS011;54076;50.322;18.650;2022-07-06T12:15:03;5.40;;;2.20;;
47483;SDS011;54076;50.322;18.650;2022-07-06T12:20:06;7.50;;;2.20;;
47483;SDS011;54076;50.322;18.650;2022-07-06T12:25:07;4.50;;;2.10;;
47483;SDS011;54076;50.322;18.650;2022-07-06T12:30:10;5.20;;;2.00;;
47483;SDS011;54076;50.322;18.650;2022-07-06T12:35:12;5.90;;;1.90;;
47483;SDS011;54076;50.322;18.650;2022-07-06T12:40:14;4.20;;;2.00;;
47483;SDS011;54076;50.322;18.650;2022-07-06T12:45:16;5.80;;;2.10;;
47483;SDS011;54076;50.322;18.650;2022-07-06T12:50:17;5.20;;;2.00;;
47483;SDS011;54076;50.322;18.650;2022-07-06T12:55:18;5.00;;;2.10;;
47483;SDS011;54076;50.322;18.650;2022-07-06T13:00:27;5.50;;;1.90;;
47483;SDS011;54076;50.322;18.650;2022-07-06T13:05:28;3.70;;;1.70;;
47483;SDS011;54076;50.322;18.650;2022-07-06T13:10:29;4.80;;;2.20;;
47483;SDS011;54076;50.322;18.650;2022-07-06T13:15:31;4.40;;;1.70;;
47483;SDS011;54076;50.322;18.650;2022-07-06T13:20:32;4.10;;;1.80;;
47483;SDS011;54076;50.322;18.650;2022-07-06T13:25:33;4.70;;;1.80;;
47483;SDS011;54076;50.322;18.650;2022-07-06T13:30:34;3.50;;;1.60;;
47483;SDS011;54076;50.322;18.650;2022-07-06T13:35:35;4.20;;;1.90;;
47483;SDS011;54076;50.322;18.650;2022-07-06T13:40:35;4.80;;;2.10;;
47483;SDS011;54076;50.322;18.650;2022-07-06T13:45:37;6.30;;;1.90;;
47483;SDS011;54076;50.322;18.650;2022-07-06T13:50:38;4.40;;;1.80;;
47483;SDS011;54076;50.322;18.650;2022-07-06T13:55:39;4.20;;;2.00;;
47483;SDS011;54076;50.322;18.650;2022-07-06T14:00:40;4.10;;;1.90;;
47483;SDS011;54076;50.322;18.650;2022-07-06T14:05:41;4.40;;;1.90;;
47483;SDS011;54076;50.322;18.650;2022-07-06T14:10:42;3.90;;;1.90;;
47483;SDS011;54076;50.322;18.650;2022-07-06T14:15:43;5.40;;;3.10;;
47483;SDS011;54076;50.322;18.650;2022-07-06T14:20:45;4.80;;;1.90;;
47483;SDS011;54076;50.322;18.650;2022-07-06T14:25:48;3.60;;;2.00;;
47483;SDS011;54076;50.322;18.650;2022-07-06T14:30:50;5.10;;;2.30;;
47483;SDS011;54076;50.322;18.650;2022-07-06T14:35:51;5.10;;;2.10;;
47483;SDS011;54076;50.322;18.650;2022-07-06T14:40:52;4.20;;;2.20;;
47483;SDS011;54076;50.322;18.650;2022-07-06T14:45:54;5.30;;;2.40;;
47483;SDS011;54076;50.322;18.650;2022-07-06T14:50:55;8.40;;;1.80;;
47483;SDS011;54076;50.322;18.650;2022-07-06T14:55:56;5.20;;;2.00;;
47483;SDS011;54076;50.322;18.650;2022-07-06T15:00:57;3.80;;;1.70;;
47483;SDS011;54076;50.322;18.650;2022-07-06T15:05:58;7.10;;;1.90;;
47483;SDS011;54076;50.322;18.650;2022-07-06T15:10:59;3.60;;;1.80;;
47483;SDS011;54076;50.322;18.650;2022-07-06T15:16:01;5.00;;;1.80;;
47483;SDS011;54076;50.322;18.650;2022-07-06T15:21:02;6.80;;;1.90;;
47483;SDS011;54076;50.322;18.650;2022-07-06T15:26:03;5.00;;;1.80;;
47483;SDS011;54076;50.322;18.650;2022-07-06T15:31:04;4.60;;;1.60;;
47483;SDS011;54076;50.322;18.650;2022-07-06T15:36:06;4.80;;;1.30;;
47483;SDS011;54076;50.322;18.650;2022-07-06T15:41:07;5.00;;;1.60;;
47483;SDS011;54076;50.322;18.650;2022-07-06T15:46:07;3.80;;;1.60;;
47483;SDS011;54076;50.322;18.650;2022-07-06T15:51:08;4.20;;;1.60;;
47483;SDS011;54076;50.322;18.650;2022-07-06T15:56:10;3.70;;;1.70;;
47483;SDS011;54076;50.322;18.650;2022-07-06T16:01:11;5.60;;;1.70;;
47483;SDS011;54076;50.322;18.650;2022-07-06T16:06:13;3.30;;;1.60;;
47483;SDS011;54076;50.322;18.650;2022-07-06T16:11:16;3.70;;;1.60;;
47483;SDS011;54076;50.322;18.650;2022-07-06T16:16:17;3.30;;;1.50;;
47483;SDS011;54076;50.322;18.650;2022-07-06T16:21:19;8.50;;;3.80;;
47483;SDS011;54076;50.322;18.650;2022-07-06T16:26:20;4.30;;;2.10;;
47483;SDS011;54076;50.322;18.650;2022-07-06T16:31:21;4.50;;;1.50;;
47483;SDS011;54076;50.322;18.650;2022-07-06T16:36:23;5.00;;;1.50;;
47483;SDS011;54076;50.322;18.650;2022-07-06T16:41:24;4.50;;;1.40;;
47483;SDS011;54076;50.322;18.650;2022-07-06T16:46:25;3.20;;;1.40;;
47483;SDS011;54076;50.322;18.650;2022-07-06T16:51:26;3.10;;;1.70;;
47483;SDS011;54076;50.322;18.650;2022-07-06T16:56:27;3.30;;;1.50;;
47483;SDS011;54076;50.322;18.650;2022-07-06T17:01:28;6.80;;;1.80;;
47483;SDS011;54076;50.322;18.650;2022-07-06T17:06:29;3.80;;;1.50;;
47483;SDS011;54076;50.322;18.650;2022-07-06T17:11:30;4.30;;;1.60;;
47483;SDS011;54076;50.322;18.650;2022-07-06T17:16:31;5.40;;;1.80;;
47483;SDS011;54076;50.322;18.650;2022-07-06T17:21:32;4.90;;;1.50;;
47483;SDS011;54076;50.322;18.650;2022-07-06T17:26:34;5.90;;;1.70;;
47483;SDS011;54076;50.322;18.650;2022-07-06T17:31:35;4.60;;;1.50;;
47483;SDS011;54076;50.322;18.650;2022-07-06T17:36:38;9.60;;;6.00;;
47483;SDS011;54076;50.322;18.650;2022-07-06T17:41:39;5.90;;;1.50;;
47483;SDS011;54076;50.322;18.650;2022-07-06T17:46:40;4.50;;;1.50;;
47483;SDS011;54076;50.322;18.650;2022-07-06T17:51:41;3.30;;;1.40;;
47483;SDS011;54076;50.322;18.650;2022-07-06T17:56:42;3.40;;;1.60;;
47483;SDS011;54076;50.322;18.650;2022-07-06T18:01:43;4.70;;;1.60;;
47483;SDS011;54076;50.322;18.650;2022-07-06T18:06:44;4.70;;;1.70;;
47483;SDS011;54076;50.322;18.650;2022-07-06T18:11:47;8.70;;;3.40;;
47483;SDS011;54076;50.322;18.650;2022-07-06T18:16:52;4.00;;;1.70;;
47483;SDS011;54076;50.322;18.650;2022-07-06T18:21:53;3.50;;;1.90;;
47483;SDS011;54076;50.322;18.650;2022-07-06T18:26:54;4.70;;;1.60;;
47483;SDS011;54076;50.322;18.650;2022-07-06T18:31:55;3.80;;;1.90;;
47483;SDS011;54076;50.322;18.650;2022-07-06T18:36:56;3.60;;;2.00;;
47483;SDS011;54076;50.322;18.650;2022-07-06T18:41:58;4.70;;;1.90;;
47483;SDS011;54076;50.322;18.650;2022-07-06T18:46:59;4.30;;;2.00;;
47483;SDS011;54076;50.322;18.650;2022-07-06T18:52:00;4.60;;;2.00;;
47483;SDS011;54076;50.322;18.650;2022-07-06T18:57:01;4.80;;;2.00;;
47483;SDS011;54076;50.322;18.650;2022-07-06T19:02:03;6.90;;;2.00;;
47483;SDS011;54076;50.322;18.650;2022-07-06T19:07:04;6.60;;;2.10;;
47483;SDS011;54076;50.322;18.650;2022-07-06T19:12:05;4.80;;;2.30;;
47483;SDS011;54076;50.322;18.650;2022-07-06T19:17:07;4.90;;;1.90;;
47483;SDS011;54076;50.322;18.650;2022-07-06T19:22:08;5.20;;;2.30;;
47483;SDS011;54076;50.322;18.650;2022-07-06T19:27:09;4.60;;;2.30;;
47483;SDS011;54076;50.322;18.650;2022-07-06T19:32:10;6.70;;;2.10;;
47483;SDS011;54076;50.322;18.650;2022-07-06T19:37:11;4.70;;;2.20;;
47483;SDS011;54076;50.322;18.650;2022-07-06T19:42:15;5.10;;;2.20;;
47483;SDS011;54076;50.322;18.650;2022-07-06T19:47:18;5.10;;;2.10;;
47483;SDS011;54076;50.322;18.650;2022-07-06T19:52:19;4.90;;;2.50;;
47483;SDS011;54076;50.322;18.650;2022-07-06T19:57:20;6.50;;;2.40;;
47483;SDS011;54076;50.322;18.650;2022-07-06T20:02:21;6.40;;;2.60;;
47483;SDS011;54076;50.322;18.650;2022-07-06T20:07:22;4.70;;;2.40;;
47483;SDS011;54076;50.322;18.650;2022-07-06T20:12:26;4.40;;;2.40;;
47483;SDS011;54076;50.322;18.650;2022-07-06T20:17:27;5.70;;;2.30;;
47483;SDS011;54076;50.322;18.650;2022-07-06T20:22:28;5.10;;;2.30;;
47483;SDS011;54076;50.322;18.650;2022-07-06T20:27:30;7.80;;;2.50;;
47483;SDS011;54076;50.322;18.650;2022-07-06T20:32:31;7.50;;;2.80;;
47483;SDS011;54076;50.322;18.650;2022-07-06T20:37:33;10.50;;;3.00;;
47483;SDS011;54076;50.322;18.650;2022-07-06T20:42:34;7.30;;;2.80;;
47483;SDS011;54076;50.322;18.650;2022-07-06T20:47:35;6.40;;;3.80;;
47483;SDS011;54076;50.322;18.650;2022-07-06T20:52:36;8.80;;;3.00;;
47483;SDS011;54076;50.322;18.650;2022-07-06T20:57:38;9.10;;;3.20;;
47483;SDS011;54076;50.322;18.650;2022-07-06T21:02:39;9.20;;;2.70;;
47483;SDS011;54076;50.322;18.650;2022-07-06T21:07:40;9.40;;;2.60;;
47483;SDS011;54076;50.322;18.650;2022-07-06T21:12:41;9.20;;;2.50;;
47483;SDS011;54076;50.322;18.650;2022-07-06T21:17:42;8.40;;;3.10;;
47483;SDS011;54076;50.322;18.650;2022-07-06T21:22:43;5.30;;;2.80;;
47483;SDS011;54076;50.322;18.650;2022-07-06T21:27:44;8.20;;;3.00;;
47483;SDS011;54076;50.322;18.650;2022-07-06T21:32:45;7.10;;;2.80;;
47483;SDS011;54076;50.322;18.650;2022-07-06T21:37:46;5.60;;;2.50;;
47483;SDS011;54076;50.322;18.650;2022-07-06T21:42:47;5.80;;;2.90;;
47483;SDS011;54076;50.322;18.650;2022-07-06T21:47:48;4.50;;;2.50;;
47483;SDS011;54076;50.322;18.650;2022-07-06T21:52:49;4.60;;;2.50;;
47483;SDS011;54076;50.322;18.650;2022-07-06T21:57:50;6.10;;;2.70;;
47483;SDS011;54076;50.322;18.650;2022-07-06T22:02:51;7.60;;;3.10;;
47483;SDS011;54076;50.322;18.650;2022-07-06T22:07:52;5.70;;;3.40;;
47483;SDS011;54076;50.322;18.650;2022-07-06T22:12:53;11.20;;;3.60;;
47483;SDS011;54076;50.322;18.650;2022-07-06T22:17:54;7.00;;;3.30;;
47483;SDS011;54076;50.322;18.650;2022-07-06T22:22:55;5.60;;;3.40;;
47483;SDS011;54076;50.322;18.650;2022-07-06T22:27:56;6.30;;;3.00;;
47483;SDS011;54076;50.322;18.650;2022-07-06T22:32:57;7.60;;;3.20;;
47483;SDS011;54076;50.322;18.650;2022-07-06T22:37:58;5.80;;;3.40;;
47483;SDS011;54076;50.322;18.650;2022-07-06T22:42:59;8.00;;;3.20;;
47483;SDS011;54076;50.322;18.650;2022-07-06T22:48:00;8.50;;;3.40;;
47483;SDS011;54076;50.322;18.650;2022-07-06T22:53:01;6.90;;;3.70;;
47483;SDS011;54076;50.322;18.650;2022-07-06T22:58:02;6.90;;;3.90;;
47483;SDS011;54076;50.322;18.650;2022-07-06T23:03:03;9.10;;;3.90;;
47483;SDS011;54076;50.322;18.650;2022-07-06T23:08:05;7.50;;;3.90;;
47483;SDS011;54076;50.322;18.650;2022-07-06T23:13:06;9.40;;;4.50;;
47483;SDS011;54076;50.322;18.650;2022-07-06T23:18:07;9.50;;;4.30;;
47483;SDS011;54076;50.322;18.650;2022-07-06T23:23:08;7.50;;;4.50;;
47483;SDS011;54076;50.322;18.650;2022-07-06T23:28:09;9.60;;;4.20;;
47483;SDS011;54076;50.322;18.650;2022-07-06T23:33:11;9.10;;;4.30;;
47483;SDS011;54076;50.322;18.650;2022-07-06T23:38:12;10.20;;;4.10;;
47483;SDS011;54076;50.322;18.650;2022-07-06T23:43:14;8.40;;;3.90;;
47483;SDS011;54076;50.322;18.650;2022-07-06T23:48:15;9.80;;;4.30;;
47483;SDS011;54076;50.322;18.650;2022-07-06T23:53:16;7.50;;;4.60;;
47483;SDS011;54076;50.322;18.650;2022-07-06T23:58:17;9.50;;;4.60;;
